^^
Meteo Knjazevac Station Historical Data
 
Daily Summary for October 16, 2019 Units:  Metric    English   Both
Daily Weekly Monthly Yearly Custom
  Current: High: Low: Average:
Temperature: 6.6 °C 11 °C 6.6 °C 8.8 °C
Dew Point: 4.9 °C 8.7 °C 4.9 °C 6.8 °C
Humidity: 89% 91% 84% 88%
Wind Speed: 0km/h 3.2km/h 0km/h 0.5km/h
Wind Gust: 1.6km/h 8km/h - -
WindCalm - - WNW
Pressure: 1019.2 hPa 1019.2 hPa 1017.8 hPa -
Precipitation: 0 mm      
Historical Graphs
 
 
Tabular Data for October 16, 2019
Time Temperature Dew Point Pressure Wind Wind Speed Wind Gust Humidity Rainfall Rate (Hourly) solar Conditions
00:00 11 °C 8.6 °C 1017.8 hPa Calm   6.4 km/h 85% 0 mm 0 W/m2
00:10 10.9 °C 8.5 °C 1017.8 hPa NW 1.6 km/h 4.8 km/h 85% 0 mm 0 W/m2
00:20 10.9 °C 8.7 °C 1018.2 hPa Calm   4.8 km/h 86% 0 mm 0 W/m2
00:30 10.7 °C 8.1 °C 1018.2 hPa NW 3.2 km/h 4.8 km/h 84% 0 mm 0 W/m2
00:40 10.5 °C 8.1 °C 1018.2 hPa WNW 1.6 km/h 8 km/h 85% 0 mm 0 W/m2
00:50 10 °C 7.6 °C 1018.5 hPa Calm   3.2 km/h 85% 0 mm 0 W/m2
01:00 9.7 °C 7.3 °C 1018.5 hPa WSW 1.6 km/h 4.8 km/h 85% 0 mm 0 W/m2
01:10 9.4 °C 7.2 °C 1018.5 hPa West 1.6 km/h 3.2 km/h 86% 0 mm 0 W/m2
01:20 9.4 °C 7.5 °C 1018.5 hPa West 1.6 km/h 3.2 km/h 88% 0 mm 0 W/m2
01:30 9.4 °C 7.7 °C 1018.5 hPa West 1.6 km/h 8 km/h 89% 0 mm 0 W/m2
01:40 9.3 °C 7.4 °C 1018.5 hPa NW 1.6 km/h 4.8 km/h 88% 0 mm 0 W/m2
01:50 9.2 °C 7 °C 1018.5 hPa Calm   3.2 km/h 86% 0 mm 0 W/m2
02:00 9 °C 6.8 °C 1018.5 hPa Calm   3.2 km/h 86% 0 mm 0 W/m2
02:10 8.9 °C 7.2 °C 1018.8 hPa Calm   3.2 km/h 89% 0 mm 0 W/m2
02:20 8.9 °C 7.3 °C 1018.8 hPa Calm   3.2 km/h 90% 0 mm 0 W/m2
02:30 8.9 °C 7.3 °C 1018.8 hPa Calm   3.2 km/h 90% 0 mm 0 W/m2
02:40 8.7 °C 6.8 °C 1018.8 hPa Calm   4.8 km/h 88% 0 mm 0 W/m2
02:50 8.5 °C 6.3 °C 1018.8 hPa Calm     86% 0 mm 0 W/m2
03:00 8.1 °C 6.2 °C 1018.8 hPa Calm   1.6 km/h 88% 0 mm 0 W/m2
03:10 7.9 °C 6.1 °C 1018.8 hPa Calm   1.6 km/h 88% 0 mm 0 W/m2
03:20 7.8 °C 6.3 °C 1018.8 hPa Calm   3.2 km/h 90% 0 mm 0 W/m2
03:30 7.8 °C 6.3 °C 1018.8 hPa WNW 1.6 km/h 3.2 km/h 90% 0 mm 0 W/m2
03:40 7.8 °C 6.3 °C 1018.8 hPa Calm   3.2 km/h 90% 0 mm 0 W/m2
03:50 7.8 °C 6.4 °C 1018.8 hPa Calm   3.2 km/h 91% 0 mm 0 W/m2
04:00 7.7 °C 6 °C 1018.8 hPa Calm   1.6 km/h 89% 0 mm 0 W/m2
04:10 7.5 °C 5.8 °C 1018.8 hPa Calm   3.2 km/h 89% 0 mm 0 W/m2
04:20 7.3 °C 5.6 °C 1018.8 hPa Calm   1.6 km/h 89% 0 mm 0 W/m2
04:30 7 °C 5.3 °C 1018.8 hPa Calm     89% 0 mm 0 W/m2
04:40 6.8 °C 5.1 °C 1018.8 hPa Calm     89% 0 mm 0 W/m2
04:50 6.6 °C 4.9 °C 1019.2 hPa Calm   1.6 km/h 89% 0 mm 0 W/m2
Knjazevac, Serbia
Compliments of Weather Underground - 2 mb